Time;durP1;ratioP1;P1;durP2;ratioP2;P2;SDS_P1;SDS_P2;PMS_P1;PMS_P2;Temp;Humidity;BMP_temperature;BMP_pressure;BME280_temperature;BME280_humidity;BME280_pressure;Samples;Min_cycle;Max_cycle;Signal;HPM_P1;HPM_P2
2022/08/17 00:01:55;;;;;;;;;;;21.00;64.80;;;;;;5121649;27;19919;-63
2022/08/17 00:04:26;;;;;;;;;;;21.00;64.80;;;;;;5121168;27;19977;-63
2022/08/17 00:06:53;;;;;;;;;;;20.90;64.90;;;;;;5130068;27;20381;-63
2022/08/17 00:09:19;;;;;;;;;;;20.90;65.00;;;;;;5131669;27;19923;-63
2022/08/17 00:11:47;;;;;;;;;;;20.90;65.20;;;;;;5131353;27;19920;-63
2022/08/17 00:14:16;;;;;;;;;;;20.90;65.30;;;;;;5131627;27;19930;-62
2022/08/17 00:16:44;;;;;;;;;;;20.80;65.20;;;;;;5131138;27;20315;-63
2022/08/17 00:19:13;;;;;;;;;;;20.80;65.20;;;;;;5120351;27;19991;-63
2022/08/17 00:21:44;;;;;;;;;;;20.80;65.20;;;;;;5128034;27;19930;-63
2022/08/17 00:24:10;;;;;;;;;;;20.80;65.10;;;;;;5131544;27;20392;-63
2022/08/17 00:26:38;;;;;;;;;;;20.80;65.10;;;;;;5131111;27;20397;-63
2022/08/17 00:29:06;;;;;;;;;;;20.80;65.30;;;;;;5130581;27;19956;-63
2022/08/17 00:31:34;;;;;;;;;;;20.70;65.40;;;;;;5131921;28;19919;-63
2022/08/17 00:34:01;;;;;;;;;;;20.70;65.50;;;;;;5130141;27;19919;-63
2022/08/17 00:36:28;;;;;;;;;;;20.70;65.60;;;;;;5126709;27;19919;-63
2022/08/17 00:38:57;;;;;;;;;;;20.60;65.60;;;;;;5130626;27;19942;-63
2022/08/17 00:41:26;;;;;;;;;;;20.60;65.70;;;;;;5121893;27;19927;-64
2022/08/17 00:43:54;;;;;;;;;;;20.60;65.90;;;;;;5123802;27;20323;-62
2022/08/17 00:46:22;;;;;;;;;;;20.60;65.80;;;;;;5127376;27;19920;-62
2022/08/17 00:48:49;;;;;;;;;;;20.60;65.90;;;;;;5134251;27;19927;-62
2022/08/17 00:51:18;;;;;;;;;;;20.60;65.90;;;;;;5133228;27;20381;-63
2022/08/17 00:53:47;;;;;;;;;;;20.60;65.90;;;;;;5127422;27;19919;-61
2022/08/17 00:56:17;;;;;;;;;;;20.60;66.10;;;;;;5133955;27;19923;-63
2022/08/17 00:58:43;;;;;;;;;;;20.60;66.10;;;;;;5131611;27;19919;-63
2022/08/17 01:01:11;;;;;;;;;;;20.50;66.30;;;;;;5130553;27;20050;-63
2022/08/17 01:03:38;;;;;;;;;;;20.50;66.40;;;;;;5133140;27;19931;-63
2022/08/17 01:06:06;;;;;;;;;;;20.50;66.40;;;;;;5134005;27;20280;-63
2022/08/17 01:08:33;;;;;;;;;;;20.40;66.40;;;;;;5125525;27;20360;-63
2022/08/17 01:11:01;;;;;;;;;;;20.40;66.50;;;;;;5130018;27;20420;-63
2022/08/17 01:13:33;;;;;;;;;;;20.40;66.40;;;;;;5131012;27;19923;-63
2022/08/17 01:16:02;;;;;;;;;;;20.50;66.10;;;;;;5131531;27;19923;-63
2022/08/17 01:18:29;;;;;;;;;;;20.40;66.10;;;;;;5131166;27;19970;-62
2022/08/17 01:20:56;;;;;;;;;;;20.50;66.10;;;;;;5131651;27;20408;-62
2022/08/17 01:23:26;;;;;;;;;;;20.40;65.90;;;;;;5131979;27;19919;-63
2022/08/17 01:25:55;;;;;;;;;;;20.40;65.80;;;;;;5133026;27;19919;-63
2022/08/17 01:28:23;;;;;;;;;;;20.40;65.90;;;;;;5126827;27;19920;-62
2022/08/17 01:30:51;;;;;;;;;;;20.30;66.30;;;;;;5135165;27;19927;-63
2022/08/17 01:33:18;;;;;;;;;;;20.30;66.30;;;;;;5125533;27;19923;-64
2022/08/17 01:35:44;;;;;;;;;;;20.30;66.40;;;;;;5130409;27;19923;-61
2022/08/17 01:38:11;;;;;;;;;;;20.30;66.60;;;;;;5134691;27;19923;-62
2022/08/17 01:40:42;;;;;;;;;;;20.20;66.80;;;;;;5132179;27;20447;-62
2022/08/17 01:43:10;;;;;;;;;;;20.20;66.90;;;;;;5127015;27;19930;-62
2022/08/17 01:45:39;;;;;;;;;;;20.20;66.90;;;;;;5132228;27;19919;-62
2022/08/17 01:48:06;;;;;;;;;;;20.20;66.90;;;;;;5135349;27;19927;-61
2022/08/17 01:50:34;;;;;;;;;;;20.20;67.00;;;;;;5135306;27;20028;-63
2022/08/17 01:53:02;;;;;;;;;;;20.10;67.10;;;;;;5131306;27;20062;-62
2022/08/17 01:55:31;;;;;;;;;;;20.10;67.20;;;;;;5129547;27;19926;-63
2022/08/17 01:57:59;;;;;;;;;;;20.20;67.30;;;;;;5134308;27;19924;-62
2022/08/17 02:00:27;;;;;;;;;;;20.10;67.30;;;;;;5130898;27;19942;-62
2022/08/17 02:02:54;;;;;;;;;;;20.10;67.40;;;;;;5128550;27;19920;-62
2022/08/17 02:05:20;;;;;;;;;;;20.10;67.60;;;;;;5133307;27;19919;-63
2022/08/17 02:07:47;;;;;;;;;;;20.10;67.60;;;;;;5126339;27;19927;-63
2022/08/17 02:10:14;;;;;;;;;;;20.00;67.90;;;;;;5134367;27;19927;-63
2022/08/17 02:12:41;;;;;;;;;;;19.90;67.90;;;;;;5127711;27;20463;-63
2022/08/17 02:15:11;;;;;;;;;;;19.90;67.90;;;;;;5131612;27;19972;-63
2022/08/17 02:17:39;;;;;;;;;;;19.90;68.00;;;;;;5128141;27;19919;-63
2022/08/17 02:20:07;;;;;;;;;;;19.90;68.10;;;;;;5133270;27;19919;-63
2022/08/17 02:22:35;;;;;;;;;;;19.80;68.10;;;;;;5132262;27;20346;-63
2022/08/17 02:25:02;;;;;;;;;;;19.80;68.10;;;;;;5129629;27;20014;-62
2022/08/17 02:27:28;;;;;;;;;;;19.70;68.20;;;;;;5131756;27;20013;-63
2022/08/17 02:29:55;;;;;;;;;;;19.80;68.10;;;;;;5127095;27;19919;-63
2022/08/17 02:32:24;;;;;;;;;;;19.70;68.30;;;;;;5124573;27;19927;-62
2022/08/17 02:34:51;;;;;;;;;;;19.80;67.90;;;;;;5122690;27;19930;-62
2022/08/17 02:37:18;;;;;;;;;;;19.80;67.90;;;;;;5130846;27;20380;-62
2022/08/17 02:39:45;;;;;;;;;;;19.70;68.00;;;;;;5126428;27;19920;-62
2022/08/17 02:42:12;;;;;;;;;;;19.70;68.20;;;;;;5131981;27;19925;-62
2022/08/17 02:44:39;;;;;;;;;;;19.70;68.30;;;;;;5125581;27;19934;-62
2022/08/17 02:47:06;;;;;;;;;;;19.60;68.50;;;;;;5128764;27;20352;-62
2022/08/17 02:49:35;;;;;;;;;;;19.60;68.60;;;;;;5131515;27;20138;-63
2022/08/17 02:52:02;;;;;;;;;;;19.60;68.80;;;;;;5131721;27;19930;-63
2022/08/17 02:54:29;;;;;;;;;;;19.60;68.70;;;;;;5130490;27;19942;-61
2022/08/17 02:56:56;;;;;;;;;;;19.60;68.60;;;;;;5127861;27;19935;-63
2022/08/17 02:59:23;;;;;;;;;;;19.60;68.70;;;;;;5130324;27;19920;-62
2022/08/17 03:01:50;;;;;;;;;;;19.60;68.90;;;;;;5128767;27;19920;-62
2022/08/17 03:04:17;;;;;;;;;;;19.60;69.00;;;;;;5128133;27;19963;-62
2022/08/17 03:06:45;;;;;;;;;;;19.60;68.80;;;;;;5132652;27;19927;-62
2022/08/17 03:09:12;;;;;;;;;;;19.50;68.70;;;;;;5123366;27;19936;-63
2022/08/17 03:11:38;;;;;;;;;;;19.50;68.90;;;;;;5128952;27;19934;-62
2022/08/17 03:14:05;;;;;;;;;;;19.50;68.80;;;;;;5133148;27;19919;-63
2022/08/17 03:16:32;;;;;;;;;;;19.60;68.50;;;;;;5132579;27;20306;-61
2022/08/17 03:18:58;;;;;;;;;;;19.60;68.40;;;;;;5132734;27;19919;-62
2022/08/17 03:21:25;;;;;;;;;;;19.50;68.50;;;;;;5131565;27;19923;-62
2022/08/17 03:23:53;;;;;;;;;;;19.40;69.10;;;;;;5132237;27;19923;-62
2022/08/17 03:26:20;;;;;;;;;;;19.40;69.30;;;;;;5132874;27;19941;-62
2022/08/17 03:28:47;;;;;;;;;;;19.40;69.30;;;;;;5132903;27;19927;-61
2022/08/17 03:31:13;;;;;;;;;;;19.30;69.50;;;;;;5126298;27;20510;-62
2022/08/17 03:33:40;;;;;;;;;;;19.30;69.40;;;;;;5127576;27;20372;-63
2022/08/17 03:36:07;;;;;;;;;;;19.30;69.50;;;;;;5131198;27;19923;-62
2022/08/17 03:38:34;;;;;;;;;;;19.30;69.60;;;;;;5123002;27;19920;-62
2022/08/17 03:41:04;;;;;;;;;;;19.30;69.70;;;;;;5131657;27;19926;-61
2022/08/17 03:43:33;;;;;;;;;;;19.30;69.70;;;;;;5125966;27;19924;-61
2022/08/17 03:57:01;;;;;;;;;;;19.20;70.10;;;;;;5127685;27;20388;-62
2022/08/17 03:59:27;;;;;;;;;;;19.10;70.30;;;;;;5131388;27;20019;-63
2022/08/17 04:01:56;;;;;;;;;;;19.10;70.30;;;;;;5126564;27;20292;-62
2022/08/17 04:04:22;;;;;;;;;;;19.10;70.40;;;;;;5124068;27;19923;-61
2022/08/17 04:06:49;;;;;;;;;;;19.10;70.30;;;;;;5130113;27;19923;-62
2022/08/17 04:09:16;;;;;;;;;;;19.10;70.40;;;;;;5137683;27;19919;-62
2022/08/17 04:11:43;;;;;;;;;;;19.00;70.50;;;;;;5127528;27;20280;-62
2022/08/17 04:14:11;;;;;;;;;;;19.10;70.30;;;;;;5124801;27;20342;-62
2022/08/17 04:16:38;;;;;;;;;;;19.10;70.40;;;;;;5129826;27;19919;-61
2022/08/17 04:19:05;;;;;;;;;;;19.10;70.30;;;;;;5128983;27;19919;-62
2022/08/17 04:21:33;;;;;;;;;;;19.10;70.40;;;;;;5127632;27;19930;-62
2022/08/17 04:24:00;;;;;;;;;;;19.00;70.50;;;;;;5129920;27;19965;-62
2022/08/17 04:26:27;;;;;;;;;;;19.10;70.50;;;;;;5130564;27;19919;-61
2022/08/17 04:28:54;;;;;;;;;;;19.10;70.60;;;;;;5128481;28;19919;-63
2022/08/17 04:31:22;;;;;;;;;;;19.00;70.60;;;;;;5125321;27;20384;-61
2022/08/17 04:33:49;;;;;;;;;;;19.00;70.70;;;;;;5128470;27;19919;-62
2022/08/17 04:36:16;;;;;;;;;;;19.00;70.60;;;;;;5130489;27;19920;-61
2022/08/17 04:38:45;;;;;;;;;;;19.00;70.70;;;;;;5129726;27;19919;-61
2022/08/17 04:43:57;;;;;;;;;;;19.00;70.80;;;;;;5124347;27;19964;-61
2022/08/17 04:46:26;;;;;;;;;;;18.90;70.90;;;;;;5131781;28;19919;-61
2022/08/17 04:48:54;;;;;;;;;;;18.90;70.60;;;;;;5122873;28;19923;-63
2022/08/17 04:51:22;;;;;;;;;;;18.90;70.60;;;;;;5131785;27;19927;-63
2022/08/17 04:53:50;;;;;;;;;;;19.00;70.50;;;;;;5131165;27;20284;-61
2022/08/17 04:56:17;;;;;;;;;;;18.90;70.70;;;;;;5127507;28;19942;-61
2022/08/17 04:58:44;;;;;;;;;;;18.90;70.80;;;;;;5131203;27;19919;-62
2022/08/17 05:01:11;;;;;;;;;;;19.00;70.60;;;;;;5127045;27;19983;-63
2022/08/17 05:03:40;;;;;;;;;;;18.90;70.60;;;;;;5128109;27;20364;-61
2022/08/17 05:06:07;;;;;;;;;;;19.00;70.20;;;;;;5129023;27;20322;-63
2022/08/17 05:08:34;;;;;;;;;;;19.00;70.10;;;;;;5126704;27;19958;-62
2022/08/17 05:11:01;;;;;;;;;;;19.10;70.10;;;;;;5130606;27;19923;-62
2022/08/17 05:13:29;;;;;;;;;;;19.10;69.90;;;;;;5126518;27;20301;-62
2022/08/17 05:15:56;;;;;;;;;;;19.10;70.30;;;;;;5125852;27;19923;-62
2022/08/17 05:18:23;;;;;;;;;;;19.10;69.90;;;;;;5129392;27;19923;-62
2022/08/17 05:20:52;;;;;;;;;;;19.10;70.10;;;;;;5125633;27;19937;-62
2022/08/17 05:23:19;;;;;;;;;;;19.10;70.20;;;;;;5131017;27;19943;-63
2022/08/17 05:25:48;;;;;;;;;;;19.10;70.20;;;;;;5127176;27;19933;-61
2022/08/17 05:28:15;;;;;;;;;;;19.20;70.30;;;;;;5125972;27;20265;-61
2022/08/17 05:30:42;;;;;;;;;;;19.20;70.00;;;;;;5126833;27;20007;-62
2022/08/17 05:33:10;;;;;;;;;;;19.30;69.90;;;;;;5126709;27;19933;-62
2022/08/17 05:35:42;;;;;;;;;;;19.30;69.80;;;;;;5128005;27;20040;-62
2022/08/17 05:38:10;;;;;;;;;;;19.40;69.70;;;;;;5135087;27;20380;-61
2022/08/17 05:40:37;;;;;;;;;;;19.40;69.70;;;;;;5130784;27;19927;-62
2022/08/17 05:43:05;;;;;;;;;;;19.50;69.50;;;;;;5127114;27;19919;-63
2022/08/17 05:45:32;;;;;;;;;;;19.50;69.70;;;;;;5126398;27;19931;-62
2022/08/17 05:47:59;;;;;;;;;;;19.50;70.00;;;;;;5130882;27;19930;-63
2022/08/17 05:50:30;;;;;;;;;;;19.50;69.60;;;;;;5130240;27;19919;-63
2022/08/17 05:53:03;;;;;;;;;;;19.50;69.90;;;;;;5132877;27;20010;-62
2022/08/17 05:55:34;;;;;;;;;;;19.60;69.90;;;;;;5132659;27;19919;-62
2022/08/17 05:58:07;;;;;;;;;;;19.60;69.90;;;;;;5129700;27;20299;-62
2022/08/17 06:00:41;;;;;;;;;;;19.60;69.60;;;;;;5129078;27;19927;-62
2022/08/17 06:03:20;;;;;;;;;;;19.60;69.70;;;;;;5127076;27;19919;-62
2022/08/17 06:05:54;;;;;;;;;;;19.60;69.80;;;;;;5127931;27;19940;-61
2022/08/17 06:08:25;;;;;;;;;;;19.60;69.90;;;;;;5128938;27;19919;-62
2022/08/17 06:10:58;;;;;;;;;;;19.60;69.80;;;;;;5130714;27;19923;-62
2022/08/17 06:13:30;;;;;;;;;;;19.70;69.40;;;;;;5131435;27;19923;-63
2022/08/17 06:16:04;;;;;;;;;;;19.60;69.60;;;;;;5126999;27;20302;-62
2022/08/17 06:18:36;;;;;;;;;;;19.60;69.60;;;;;;5126160;27;19919;-62
2022/08/17 06:21:04;;;;;;;;;;;19.60;69.70;;;;;;5132026;27;20218;-62
2022/08/17 06:23:34;;;;;;;;;;;19.70;70.00;;;;;;5133737;27;19919;-63
2022/08/17 06:26:04;;;;;;;;;;;19.70;69.80;;;;;;5127921;27;19919;-61
2022/08/17 06:28:34;;;;;;;;;;;19.80;69.70;;;;;;5132129;27;19919;-63
2022/08/17 06:31:05;;;;;;;;;;;19.90;69.80;;;;;;5133545;27;19972;-63
2022/08/17 06:33:33;;;;;;;;;;;20.00;69.30;;;;;;5132665;27;19926;-63
2022/08/17 06:36:03;;;;;;;;;;;20.10;69.40;;;;;;5126207;27;20372;-63
2022/08/17 06:38:40;;;;;;;;;;;20.30;69.10;;;;;;5134303;27;19919;-62
2022/08/17 06:41:14;;;;;;;;;;;20.40;68.90;;;;;;5132449;27;20072;-62
2022/08/17 06:43:48;;;;;;;;;;;20.40;69.10;;;;;;5132433;27;19919;-62
2022/08/17 06:46:18;;;;;;;;;;;20.60;69.10;;;;;;5130434;27;19919;-62
2022/08/17 06:48:49;;;;;;;;;;;20.70;68.90;;;;;;5131975;27;20372;-63
2022/08/17 06:51:18;;;;;;;;;;;20.80;68.40;;;;;;5131201;27;19934;-63
2022/08/17 06:53:47;;;;;;;;;;;20.90;68.40;;;;;;5129675;27;19931;-62
2022/08/17 06:56:20;;;;;;;;;;;21.00;68.20;;;;;;5133675;27;19926;-63
2022/08/17 06:58:48;;;;;;;;;;;21.10;68.00;;;;;;5132332;27;19923;-63
2022/08/17 07:01:16;;;;;;;;;;;21.10;68.10;;;;;;5126931;27;20039;-63
2022/08/17 07:03:46;;;;;;;;;;;21.10;68.00;;;;;;5123721;27;19946;-63
2022/08/17 07:06:14;;;;;;;;;;;21.20;68.10;;;;;;5127926;27;19930;-63
2022/08/17 07:08:47;;;;;;;;;;;21.30;68.10;;;;;;5132571;27;20360;-63
2022/08/17 07:11:15;;;;;;;;;;;21.40;68.00;;;;;;5131321;27;19923;-62
2022/08/17 07:13:45;;;;;;;;;;;21.50;67.90;;;;;;5131577;27;20330;-62
2022/08/17 07:16:15;;;;;;;;;;;21.50;67.30;;;;;;5132324;27;19961;-63
2022/08/17 07:18:42;;;;;;;;;;;21.60;67.50;;;;;;5131722;27;19919;-63
2022/08/17 07:21:17;;;;;;;;;;;21.60;67.50;;;;;;5131476;27;19925;-63
2022/08/17 07:23:51;;;;;;;;;;;21.70;67.40;;;;;;5119359;27;19946;-64
2022/08/17 07:26:18;;;;;;;;;;;21.70;67.20;;;;;;5124179;27;19931;-63
2022/08/17 07:28:46;;;;;;;;;;;21.80;67.00;;;;;;5121409;27;19946;-64
2022/08/17 07:31:16;;;;;;;;;;;21.90;67.00;;;;;;5133318;27;20439;-63
2022/08/17 07:33:57;;;;;;;;;;;22.00;67.10;;;;;;5119911;27;20003;-63
2022/08/17 07:36:25;;;;;;;;;;;22.00;67.00;;;;;;5129177;27;19977;-62
2022/08/17 07:38:55;;;;;;;;;;;22.10;67.00;;;;;;5130331;27;19923;-62
2022/08/17 07:41:22;;;;;;;;;;;22.10;66.80;;;;;;5128022;27;19919;-62
2022/08/17 07:43:51;;;;;;;;;;;22.20;66.40;;;;;;5122787;27;19919;-62
2022/08/17 07:49:19;;;;;;;;;;;22.30;66.10;;;;;;5129745;27;19919;-63
2022/08/17 07:51:57;;;;;;;;;;;22.40;65.70;;;;;;5123166;27;19929;-63
2022/08/17 07:54:27;;;;;;;;;;;22.50;65.30;;;;;;5128392;27;20462;-63
2022/08/17 07:56:55;;;;;;;;;;;22.60;64.90;;;;;;5129705;27;19919;-62
2022/08/17 07:59:24;;;;;;;;;;;22.60;64.90;;;;;;5126189;27;19923;-62
2022/08/17 08:02:21;;;;;;;;;;;22.60;64.70;;;;;;5121612;27;20373;-62
2022/08/17 08:04:49;;;;;;;;;;;22.70;64.60;;;;;;5131500;27;20360;-61
2022/08/17 08:07:24;;;;;;;;;;;22.80;64.60;;;;;;5128446;27;19927;-63
2022/08/17 08:09:59;;;;;;;;;;;22.90;64.40;;;;;;5126361;27;19961;-61
2022/08/17 08:12:32;;;;;;;;;;;22.90;64.40;;;;;;5129531;27;19976;-62
2022/08/17 08:15:01;;;;;;;;;;;23.00;64.00;;;;;;5131418;27;19950;-62
2022/08/17 08:17:34;;;;;;;;;;;23.10;63.70;;;;;;5120803;27;19919;-61
2022/08/17 08:20:02;;;;;;;;;;;23.20;63.70;;;;;;5130707;27;19979;-62
2022/08/17 08:22:35;;;;;;;;;;;23.30;63.60;;;;;;5130936;27;19966;-61
2022/08/17 08:25:15;;;;;;;;;;;23.30;63.40;;;;;;5129697;27;20723;-61
2022/08/17 08:27:47;;;;;;;;;;;23.40;63.10;;;;;;5130671;27;19919;-61
2022/08/17 08:30:17;;;;;;;;;;;23.50;63.00;;;;;;5129580;27;19946;-62
2022/08/17 08:33:03;;;;;;;;;;;23.50;62.90;;;;;;5128455;27;19926;-61
2022/08/17 08:35:32;;;;;;;;;;;23.70;62.80;;;;;;5119636;27;19920;-61
2022/08/17 08:38:06;;;;;;;;;;;23.80;62.20;;;;;;5131692;27;19998;-62
2022/08/17 08:40:39;;;;;;;;;;;23.90;61.50;;;;;;5131639;27;19919;-62
2022/08/17 08:43:11;;;;;;;;;;;24.20;61.00;;;;;;5129157;27;20414;-62
2022/08/17 08:45:43;;;;;;;;;;;24.30;60.60;;;;;;5130511;27;19926;-61
2022/08/17 08:48:16;;;;;;;;;;;24.50;60.20;;;;;;5128794;27;19919;-62
2022/08/17 08:50:48;;;;;;;;;;;24.50;59.70;;;;;;5129843;27;19927;-62
2022/08/17 08:53:22;;;;;;;;;;;24.60;59.20;;;;;;5125933;27;19933;-62
2022/08/17 08:55:51;;;;;;;;;;;24.70;58.60;;;;;;5129237;27;20384;-63
2022/08/17 08:58:21;;;;;;;;;;;24.90;58.40;;;;;;5126878;27;19926;-63
2022/08/17 09:00:52;;;;;;;;;;;25.10;58.20;;;;;;5122879;27;19942;-61
2022/08/17 09:03:21;;;;;;;;;;;25.10;57.70;;;;;;5127806;27;19927;-64
2022/08/17 09:06:06;;;;;;;;;;;25.30;57.60;;;;;;5134576;27;19923;-62
2022/08/17 09:08:38;;;;;;;;;;;25.30;57.30;;;;;;5115678;27;19920;-61
2022/08/17 09:11:12;;;;;;;;;;;25.40;57.00;;;;;;5131987;27;20261;-61
2022/08/17 09:13:43;;;;;;;;;;;25.50;56.20;;;;;;5124956;27;19919;-62
2022/08/17 09:16:15;;;;;;;;;;;25.50;56.00;;;;;;5130229;27;20383;-62
2022/08/17 09:18:43;;;;;;;;;;;25.50;55.90;;;;;;5129943;27;19923;-61
2022/08/17 09:21:14;;;;;;;;;;;25.50;55.90;;;;;;5133096;27;19919;-62
2022/08/17 09:23:43;;;;;;;;;;;25.50;55.80;;;;;;5132310;27;19919;-61
2022/08/17 09:26:11;;;;;;;;;;;25.60;55.90;;;;;;5126145;27;19919;-63
2022/08/17 09:28:41;;;;;;;;;;;25.60;55.90;;;;;;5131990;27;19924;-62
2022/08/17 09:31:09;;;;;;;;;;;25.60;55.60;;;;;;5116198;27;19920;-62
2022/08/17 09:33:42;;;;;;;;;;;25.60;55.60;;;;;;5128377;27;19919;-62
2022/08/17 09:36:11;;;;;;;;;;;25.60;55.60;;;;;;5133564;27;19954;-62
2022/08/17 09:38:41;;;;;;;;;;;25.50;55.50;;;;;;5133166;27;19919;-61
2022/08/17 09:41:12;;;;;;;;;;;25.50;55.80;;;;;;5133523;27;19926;-61
2022/08/17 09:43:43;;;;;;;;;;;25.50;56.20;;;;;;5129724;27;19919;-61
2022/08/17 09:46:12;;;;;;;;;;;25.40;56.20;;;;;;5134058;27;19925;-61
2022/08/17 09:48:41;;;;;;;;;;;25.30;55.20;;;;;;5133485;27;19920;-62
2022/08/17 09:51:12;;;;;;;;;;;25.40;54.80;;;;;;5133122;27;19927;-62
2022/08/17 09:53:39;;;;;;;;;;;25.40;55.60;;;;;;5130464;27;20296;-62
2022/08/17 09:56:09;;;;;;;;;;;25.40;55.40;;;;;;5133952;27;19919;-62
2022/08/17 09:58:46;;;;;;;;;;;25.50;55.20;;;;;;5120345;27;19933;-61
2022/08/17 10:01:17;;;;;;;;;;;25.60;55.00;;;;;;5127807;27;19955;-61
2022/08/17 10:04:04;;;;;;;;;;;25.60;54.90;;;;;;5134469;27;19927;-62
2022/08/17 10:06:33;;;;;;;;;;;25.60;54.80;;;;;;5133318;27;20376;-62
2022/08/17 10:09:07;;;;;;;;;;;25.70;54.60;;;;;;5133683;27;19919;-62
2022/08/17 10:14:24;;;;;;;;;;;25.80;54.30;;;;;;5133309;27;19919;-61
2022/08/17 10:16:54;;;;;;;;;;;25.90;54.00;;;;;;5130056;27;19920;-62
2022/08/17 10:19:25;;;;;;;;;;;26.00;53.50;;;;;;5133207;27;19919;-62
2022/08/17 10:27:32;;;;;;;;;;;26.10;53.80;;;;;;5130021;27;20296;-62
2022/08/17 10:30:02;;;;;;;;;;;26.10;53.70;;;;;;5127930;27;20391;-61
2022/08/17 10:32:33;;;;;;;;;;;26.00;53.40;;;;;;5133258;27;20388;-62
2022/08/17 10:35:10;;;;;;;;;;;26.00;53.50;;;;;;5131572;27;19919;-64
2022/08/17 10:37:42;;;;;;;;;;;26.00;53.30;;;;;;5132019;27;19919;-62
2022/08/17 10:40:19;;;;;;;;;;;26.10;53.20;;;;;;5132233;27;20439;-62
2022/08/17 10:42:48;;;;;;;;;;;26.20;53.10;;;;;;5129626;27;19927;-62
2022/08/17 10:45:18;;;;;;;;;;;26.40;52.80;;;;;;5127495;27;19923;-63
2022/08/17 10:47:58;;;;;;;;;;;26.40;52.50;;;;;;5131449;27;20433;-61
2022/08/17 10:50:43;;;;;;;;;;;26.50;52.30;;;;;;5130533;27;19919;-62
2022/08/17 10:53:31;;;;;;;;;;;26.60;51.80;;;;;;5120941;27;19972;-61
2022/08/17 10:56:13;;;;;;;;;;;26.60;51.80;;;;;;5131334;27;19928;-63
2022/08/17 10:58:46;;;;;;;;;;;26.80;51.50;;;;;;5130410;27;19919;-62
2022/08/17 11:01:13;;;;;;;;;;;26.80;51.50;;;;;;5125835;27;19919;-62
2022/08/17 11:03:52;;;;;;;;;;;26.90;51.50;;;;;;5126914;27;19954;-63
2022/08/17 11:06:23;;;;;;;;;;;26.90;51.20;;;;;;5133778;27;20295;-63
2022/08/17 11:09:10;;;;;;;;;;;27.10;50.80;;;;;;5127029;27;19927;-62
2022/08/17 11:11:46;;;;;;;;;;;27.10;50.60;;;;;;5131420;27;20372;-63
2022/08/17 11:14:22;;;;;;;;;;;27.10;50.90;;;;;;5128444;27;20388;-63
2022/08/17 11:16:58;;;;;;;;;;;27.10;50.70;;;;;;5128234;27;20321;-63
2022/08/17 11:19:43;;;;;;;;;;;27.20;50.20;;;;;;5127570;27;19927;-61
2022/08/17 11:22:16;;;;;;;;;;;27.20;50.00;;;;;;5126102;27;19972;-62
2022/08/17 11:24:46;;;;;;;;;;;27.10;50.10;;;;;;5129622;27;19919;-62
2022/08/17 11:27:21;;;;;;;;;;;27.10;50.20;;;;;;5129987;27;19932;-63
2022/08/17 11:29:50;;;;;;;;;;;27.10;50.00;;;;;;5131484;27;20147;-62
2022/08/17 11:32:31;;;;;;;;;;;27.10;50.20;;;;;;5130004;27;20392;-61
2022/08/17 11:35:10;;;;;;;;;;;27.10;50.20;;;;;;5122974;27;19966;-63
2022/08/17 11:37:45;;;;;;;;;;;27.10;49.70;;;;;;5128291;27;20440;-62
2022/08/17 11:40:20;;;;;;;;;;;27.20;49.70;;;;;;5132117;27;19919;-61
2022/08/17 11:42:54;;;;;;;;;;;27.20;49.80;;;;;;5131993;27;20376;-63
2022/08/17 11:45:30;;;;;;;;;;;27.20;49.90;;;;;;5132103;27;19920;-62
2022/08/17 11:53:59;;;;;;;;;;;27.00;50.30;;;;;;5125457;27;19927;-62
2022/08/17 11:56:31;;;;;;;;;;;26.90;50.60;;;;;;5132345;27;19923;-62
2022/08/17 11:58:59;;;;;;;;;;;26.80;50.70;;;;;;5127251;27;19924;-61
2022/08/17 12:01:44;;;;;;;;;;;26.70;50.90;;;;;;5125621;27;19923;-63
2022/08/17 12:04:19;;;;;;;;;;;26.60;51.10;;;;;;5131123;27;20463;-62
2022/08/17 12:06:48;;;;;;;;;;;26.60;51.50;;;;;;5137358;27;20429;-63
2022/08/17 12:09:20;;;;;;;;;;;26.60;52.20;;;;;;5127557;27;19919;-62
2022/08/17 12:11:51;;;;;;;;;;;26.50;53.00;;;;;;5132024;27;19919;-64
2022/08/17 12:14:21;;;;;;;;;;;26.40;54.50;;;;;;5131345;27;19919;-63
2022/08/17 12:16:57;;;;;;;;;;;26.20;55.80;;;;;;5128549;27;19923;-63
2022/08/17 12:19:26;;;;;;;;;;;26.20;56.00;;;;;;5130981;27;19926;-62
2022/08/17 12:21:56;;;;;;;;;;;26.10;55.90;;;;;;5128522;27;20246;-63
2022/08/17 12:24:30;;;;;;;;;;;26.10;56.70;;;;;;5125590;27;19926;-63
2022/08/17 12:26:59;;;;;;;;;;;26.00;57.00;;;;;;5129878;27;19919;-63
2022/08/17 12:29:26;;;;;;;;;;;26.00;58.10;;;;;;5129862;27;19955;-62
2022/08/17 12:31:53;;;;;;;;;;;25.90;58.40;;;;;;5130346;27;19923;-62
2022/08/17 12:34:21;;;;;;;;;;;25.90;58.30;;;;;;5128316;27;20460;-62
2022/08/17 12:36:50;;;;;;;;;;;25.90;58.30;;;;;;5123308;27;19930;-62
2022/08/17 12:39:18;;;;;;;;;;;25.90;57.90;;;;;;5128945;27;19930;-62
2022/08/17 12:41:46;;;;;;;;;;;25.90;58.00;;;;;;5129943;27;19927;-62
2022/08/17 12:44:15;;;;;;;;;;;25.90;58.30;;;;;;5133354;27;20311;-62
2022/08/17 12:46:47;;;;;;;;;;;25.90;58.70;;;;;;5135417;27;19950;-63
2022/08/17 12:49:22;;;;;;;;;;;26.00;59.00;;;;;;5125347;27;20021;-63
2022/08/17 12:51:49;;;;;;;;;;;26.00;58.80;;;;;;5131186;27;19974;-62
2022/08/17 12:54:21;;;;;;;;;;;26.10;58.90;;;;;;5129722;27;19971;-62
2022/08/17 12:56:48;;;;;;;;;;;26.10;59.60;;;;;;5133740;27;20135;-62
2022/08/17 12:59:17;;;;;;;;;;;26.00;59.90;;;;;;5135487;27;20391;-62
2022/08/17 13:01:44;;;;;;;;;;;26.00;59.70;;;;;;5131758;27;19919;-62
2022/08/17 13:04:12;;;;;;;;;;;26.10;59.60;;;;;;5131477;27;20365;-62
2022/08/17 13:06:45;;;;;;;;;;;26.00;59.60;;;;;;5132465;27;19955;-62
2022/08/17 13:09:13;;;;;;;;;;;26.00;59.90;;;;;;5135292;27;19919;-62
2022/08/17 13:11:46;;;;;;;;;;;26.00;58.90;;;;;;5135177;27;19926;-62
2022/08/17 13:14:17;;;;;;;;;;;26.10;57.90;;;;;;5132222;27;19985;-61
2022/08/17 13:16:49;;;;;;;;;;;26.00;57.10;;;;;;5126115;27;19925;-62
2022/08/17 13:19:17;;;;;;;;;;;26.10;56.70;;;;;;5130411;27;20357;-62
2022/08/17 13:21:46;;;;;;;;;;;26.10;56.30;;;;;;5125224;27;19923;-63
2022/08/17 13:24:16;;;;;;;;;;;26.20;55.70;;;;;;5133812;27;19972;-62
2022/08/17 13:26:45;;;;;;;;;;;26.20;55.20;;;;;;5132504;27;19919;-62
2022/08/17 13:29:19;;;;;;;;;;;26.40;54.70;;;;;;5131627;27;19926;-63
2022/08/17 13:31:47;;;;;;;;;;;26.50;54.70;;;;;;5131103;27;19919;-64
2022/08/17 13:34:15;;;;;;;;;;;26.60;53.90;;;;;;5134729;27;19920;-63
2022/08/17 13:36:43;;;;;;;;;;;26.70;54.10;;;;;;5133748;27;19925;-61
2022/08/17 13:39:12;;;;;;;;;;;26.80;53.50;;;;;;5130194;27;19942;-63
2022/08/17 13:41:39;;;;;;;;;;;26.80;52.60;;;;;;5123435;27;19945;-61
2022/08/17 13:44:21;;;;;;;;;;;26.80;52.30;;;;;;5134884;27;19919;-62
2022/08/17 13:46:51;;;;;;;;;;;26.80;51.90;;;;;;5132532;27;19929;-62
2022/08/17 13:49:20;;;;;;;;;;;26.80;51.70;;;;;;5132798;27;19934;-63
2022/08/17 13:51:48;;;;;;;;;;;26.80;51.30;;;;;;5127716;27;19919;-61
2022/08/17 13:54:19;;;;;;;;;;;26.80;51.00;;;;;;5134737;27;19919;-63
2022/08/17 13:56:51;;;;;;;;;;;26.80;51.70;;;;;;5132206;27;19923;-62
2022/08/17 13:59:25;;;;;;;;;;;26.80;51.30;;;;;;5123477;27;20006;-61
2022/08/17 14:01:53;;;;;;;;;;;26.80;51.10;;;;;;5129421;27;19919;-63
2022/08/17 14:04:21;;;;;;;;;;;26.90;50.90;;;;;;5130709;27;19923;-62
2022/08/17 14:06:50;;;;;;;;;;;26.90;50.80;;;;;;5133150;27;19919;-62
2022/08/17 14:09:17;;;;;;;;;;;26.90;50.80;;;;;;5132454;27;19919;-62
2022/08/17 14:11:44;;;;;;;;;;;27.00;50.40;;;;;;5132747;27;19934;-63
2022/08/17 14:14:12;;;;;;;;;;;27.00;49.90;;;;;;5129758;27;20043;-63
2022/08/17 14:16:40;;;;;;;;;;;27.00;49.70;;;;;;5132390;27;19926;-62
2022/08/17 14:19:10;;;;;;;;;;;27.00;49.50;;;;;;5124882;27;19927;-64
2022/08/17 14:21:37;;;;;;;;;;;27.00;49.40;;;;;;5124759;27;19920;-63
2022/08/17 14:24:04;;;;;;;;;;;27.00;49.50;;;;;;5125924;27;19924;-62
2022/08/17 14:26:31;;;;;;;;;;;27.10;49.50;;;;;;5131937;27;19930;-64
2022/08/17 14:28:58;;;;;;;;;;;27.00;49.30;;;;;;5126272;27;19931;-64
2022/08/17 14:31:26;;;;;;;;;;;27.10;49.20;;;;;;5124883;27;19927;-62
2022/08/17 14:33:53;;;;;;;;;;;27.10;49.30;;;;;;5125336;27;19930;-61
2022/08/17 14:36:21;;;;;;;;;;;27.10;49.30;;;;;;5132490;27;19937;-61
2022/08/17 14:38:48;;;;;;;;;;;27.10;49.20;;;;;;5130381;27;19919;-63
2022/08/17 14:41:15;;;;;;;;;;;27.20;49.10;;;;;;5128553;27;19919;-64
2022/08/17 14:43:42;;;;;;;;;;;27.10;49.50;;;;;;5133487;27;19919;-62
2022/08/17 14:46:11;;;;;;;;;;;27.10;49.40;;;;;;5127350;27;20022;-62
2022/08/17 14:48:39;;;;;;;;;;;27.10;49.40;;;;;;5130046;27;19927;-64
2022/08/17 14:51:06;;;;;;;;;;;27.20;49.20;;;;;;5126539;27;19983;-61
2022/08/17 14:53:35;;;;;;;;;;;27.20;49.20;;;;;;5126667;27;20356;-63
2022/08/17 14:56:02;;;;;;;;;;;27.20;48.90;;;;;;5132302;27;20231;-62
2022/08/17 14:58:29;;;;;;;;;;;27.30;48.60;;;;;;5133109;27;19933;-61
2022/08/17 15:00:56;;;;;;;;;;;27.30;48.90;;;;;;5120174;27;20002;-63
2022/08/17 15:03:23;;;;;;;;;;;27.20;49.00;;;;;;5133058;27;19919;-63